sensor_id;sensor_type;location;lat;lon;timestamp;P1;durP1;ratioP1;P2;durP2;ratioP2
64986;SDS011;51532;52.108;9.360;2022-09-23T00:02:46;5.45;;;4.07;;
64986;SDS011;51532;52.108;9.360;2022-09-23T00:05:34;4.80;;;3.97;;
64986;SDS011;51532;52.108;9.360;2022-09-23T00:08:23;5.97;;;4.00;;
64986;SDS011;51532;52.108;9.360;2022-09-23T00:11:15;4.50;;;3.42;;
64986;SDS011;51532;52.108;9.360;2022-09-23T00:14:04;4.28;;;3.88;;
64986;SDS011;51532;52.108;9.360;2022-09-23T00:16:51;6.13;;;3.90;;
64986;SDS011;51532;52.108;9.360;2022-09-23T00:19:39;4.53;;;3.65;;
64986;SDS011;51532;52.108;9.360;2022-09-23T00:22:26;5.65;;;3.80;;
64986;SDS011;51532;52.108;9.360;2022-09-23T00:25:14;5.05;;;3.85;;
64986;SDS011;51532;52.108;9.360;2022-09-23T00:28:01;6.60;;;4.05;;
64986;SDS011;51532;52.108;9.360;2022-09-23T00:30:49;6.30;;;4.13;;
64986;SDS011;51532;52.108;9.360;2022-09-23T00:33:36;4.38;;;3.75;;
64986;SDS011;51532;52.108;9.360;2022-09-23T00:36:26;5.82;;;4.07;;
64986;SDS011;51532;52.108;9.360;2022-09-23T00:39:13;6.20;;;3.60;;
64986;SDS011;51532;52.108;9.360;2022-09-23T00:42:01;4.85;;;4.00;;
64986;SDS011;51532;52.108;9.360;2022-09-23T00:44:50;5.03;;;4.05;;
64986;SDS011;51532;52.108;9.360;2022-09-23T00:47:46;5.15;;;3.20;;
64986;SDS011;51532;52.108;9.360;2022-09-23T00:50:41;4.95;;;3.65;;
64986;SDS011;51532;52.108;9.360;2022-09-23T00:53:30;3.95;;;3.53;;
64986;SDS011;51532;52.108;9.360;2022-09-23T00:56:18;4.20;;;3.67;;
64986;SDS011;51532;52.108;9.360;2022-09-23T00:59:08;5.00;;;3.22;;
64986;SDS011;51532;52.108;9.360;2022-09-23T01:01:56;3.75;;;3.22;;
64986;SDS011;51532;52.108;9.360;2022-09-23T01:04:47;3.92;;;3.28;;
64986;SDS011;51532;52.108;9.360;2022-09-23T01:07:37;4.47;;;3.38;;
64986;SDS011;51532;52.108;9.360;2022-09-23T01:10:24;4.82;;;3.20;;
64986;SDS011;51532;52.108;9.360;2022-09-23T01:13:30;5.25;;;3.35;;
64986;SDS011;51532;52.108;9.360;2022-09-23T01:16:53;3.90;;;3.13;;
64986;SDS011;51532;52.108;9.360;2022-09-23T01:26:45;3.38;;;3.05;;
64986;SDS011;51532;52.108;9.360;2022-09-23T01:29:41;4.07;;;3.33;;
64986;SDS011;51532;52.108;9.360;2022-09-23T01:33:04;3.85;;;3.15;;
64986;SDS011;51532;52.108;9.360;2022-09-23T01:39:22;4.63;;;3.25;;
64986;SDS011;51532;52.108;9.360;2022-09-23T01:45:32;4.05;;;3.42;;
64986;SDS011;51532;52.108;9.360;2022-09-23T01:48:35;3.40;;;2.88;;
64986;SDS011;51532;52.108;9.360;2022-09-23T01:51:26;3.40;;;3.10;;
64986;SDS011;51532;52.108;9.360;2022-09-23T01:54:23;6.25;;;3.20;;
64986;SDS011;51532;52.108;9.360;2022-09-23T01:57:20;5.05;;;3.20;;
64986;SDS011;51532;52.108;9.360;2022-09-23T02:00:14;4.65;;;3.13;;
64986;SDS011;51532;52.108;9.360;2022-09-23T02:03:05;4.78;;;3.25;;
64986;SDS011;51532;52.108;9.360;2022-09-23T02:06:00;5.15;;;3.58;;
64986;SDS011;51532;52.108;9.360;2022-09-23T02:09:01;4.18;;;3.28;;
64986;SDS011;51532;52.108;9.360;2022-09-23T02:11:55;6.32;;;3.30;;
64986;SDS011;51532;52.108;9.360;2022-09-23T02:14:48;6.85;;;3.95;;
64986;SDS011;51532;52.108;9.360;2022-09-23T02:17:42;4.97;;;3.20;;
64986;SDS011;51532;52.108;9.360;2022-09-23T02:20:41;4.20;;;3.25;;
64986;SDS011;51532;52.108;9.360;2022-09-23T02:23:31;4.63;;;3.30;;
64986;SDS011;51532;52.108;9.360;2022-09-23T02:26:36;4.38;;;3.28;;
64986;SDS011;51532;52.108;9.360;2022-09-23T02:29:40;3.80;;;3.40;;
64986;SDS011;51532;52.108;9.360;2022-09-23T02:32:36;4.10;;;3.42;;
64986;SDS011;51532;52.108;9.360;2022-09-23T02:35:40;3.70;;;3.00;;
64986;SDS011;51532;52.108;9.360;2022-09-23T02:38:40;3.42;;;3.13;;
64986;SDS011;51532;52.108;9.360;2022-09-23T02:44:19;3.50;;;3.17;;
64986;SDS011;51532;52.108;9.360;2022-09-23T02:47:08;3.90;;;3.60;;
64986;SDS011;51532;52.108;9.360;2022-09-23T02:49:56;3.85;;;3.38;;
64986;SDS011;51532;52.108;9.360;2022-09-23T02:52:44;3.72;;;3.40;;
64986;SDS011;51532;52.108;9.360;2022-09-23T02:55:31;4.22;;;3.72;;
64986;SDS011;51532;52.108;9.360;2022-09-23T02:58:19;4.93;;;3.90;;
64986;SDS011;51532;52.108;9.360;2022-09-23T03:01:11;4.75;;;3.78;;
64986;SDS011;51532;52.108;9.360;2022-09-23T03:04:10;4.28;;;3.88;;
64986;SDS011;51532;52.108;9.360;2022-09-23T03:07:23;5.18;;;4.22;;
64986;SDS011;51532;52.108;9.360;2022-09-23T03:10:22;4.65;;;4.13;;
64986;SDS011;51532;52.108;9.360;2022-09-23T03:19:41;5.47;;;3.55;;
64986;SDS011;51532;52.108;9.360;2022-09-23T03:22:31;4.68;;;3.50;;
64986;SDS011;51532;52.108;9.360;2022-09-23T03:25:22;4.93;;;3.92;;
64986;SDS011;51532;52.108;9.360;2022-09-23T03:28:10;6.75;;;3.97;;
64986;SDS011;51532;52.108;9.360;2022-09-23T03:30:59;5.15;;;4.00;;
64986;SDS011;51532;52.108;9.360;2022-09-23T03:33:49;4.80;;;3.92;;
64986;SDS011;51532;52.108;9.360;2022-09-23T03:36:41;4.70;;;3.70;;
64986;SDS011;51532;52.108;9.360;2022-09-23T03:39:42;5.50;;;3.90;;
64986;SDS011;51532;52.108;9.360;2022-09-23T03:42:34;8.40;;;4.30;;
64986;SDS011;51532;52.108;9.360;2022-09-23T03:45:25;5.57;;;3.85;;
64986;SDS011;51532;52.108;9.360;2022-09-23T03:48:16;5.18;;;4.10;;
64986;SDS011;51532;52.108;9.360;2022-09-23T03:51:07;7.72;;;4.15;;
64986;SDS011;51532;52.108;9.360;2022-09-23T03:54:09;4.65;;;4.05;;
64986;SDS011;51532;52.108;9.360;2022-09-23T03:56:57;4.63;;;3.67;;
64986;SDS011;51532;52.108;9.360;2022-09-23T03:59:44;6.70;;;3.85;;
64986;SDS011;51532;52.108;9.360;2022-09-23T04:02:31;5.63;;;4.30;;
64986;SDS011;51532;52.108;9.360;2022-09-23T04:05:19;6.18;;;4.78;;
64986;SDS011;51532;52.108;9.360;2022-09-23T04:08:07;4.97;;;4.32;;
64986;SDS011;51532;52.108;9.360;2022-09-23T04:10:58;5.25;;;4.30;;
64986;SDS011;51532;52.108;9.360;2022-09-23T04:13:47;5.00;;;4.50;;
64986;SDS011;51532;52.108;9.360;2022-09-23T04:16:34;6.00;;;4.53;;
64986;SDS011;51532;52.108;9.360;2022-09-23T04:19:22;6.82;;;4.55;;
64986;SDS011;51532;52.108;9.360;2022-09-23T04:22:09;6.75;;;4.53;;
64986;SDS011;51532;52.108;9.360;2022-09-23T04:24:56;4.82;;;4.30;;
64986;SDS011;51532;52.108;9.360;2022-09-23T04:27:44;7.28;;;4.65;;
64986;SDS011;51532;52.108;9.360;2022-09-23T04:30:32;5.05;;;4.65;;
64986;SDS011;51532;52.108;9.360;2022-09-23T04:33:19;5.30;;;4.00;;
64986;SDS011;51532;52.108;9.360;2022-09-23T04:36:07;5.82;;;4.00;;
64986;SDS011;51532;52.108;9.360;2022-09-23T04:38:54;6.72;;;4.40;;
64986;SDS011;51532;52.108;9.360;2022-09-23T04:41:42;7.22;;;4.38;;
64986;SDS011;51532;52.108;9.360;2022-09-23T04:44:30;6.38;;;4.20;;
64986;SDS011;51532;52.108;9.360;2022-09-23T04:47:18;4.65;;;4.15;;
64986;SDS011;51532;52.108;9.360;2022-09-23T04:50:05;6.80;;;4.63;;
64986;SDS011;51532;52.108;9.360;2022-09-23T04:52:53;4.47;;;4.03;;
64986;SDS011;51532;52.108;9.360;2022-09-23T04:55:40;4.78;;;3.88;;
64986;SDS011;51532;52.108;9.360;2022-09-23T04:58:29;6.47;;;4.80;;
64986;SDS011;51532;52.108;9.360;2022-09-23T05:04:10;4.68;;;4.10;;
64986;SDS011;51532;52.108;9.360;2022-09-23T05:06:59;4.85;;;3.90;;
64986;SDS011;51532;52.108;9.360;2022-09-23T05:09:49;5.93;;;3.90;;
64986;SDS011;51532;52.108;9.360;2022-09-23T05:12:36;5.00;;;4.10;;
64986;SDS011;51532;52.108;9.360;2022-09-23T05:15:24;4.70;;;4.00;;
64986;SDS011;51532;52.108;9.360;2022-09-23T05:18:11;4.70;;;3.80;;
64986;SDS011;51532;52.108;9.360;2022-09-23T05:21:03;5.68;;;3.83;;
64986;SDS011;51532;52.108;9.360;2022-09-23T05:23:51;10.15;;;7.05;;
64986;SDS011;51532;52.108;9.360;2022-09-23T05:26:40;9.52;;;7.20;;
64986;SDS011;51532;52.108;9.360;2022-09-23T05:29:27;8.50;;;5.78;;
64986;SDS011;51532;52.108;9.360;2022-09-23T05:32:15;54.13;;;36.15;;
64986;SDS011;51532;52.108;9.360;2022-09-23T05:35:02;44.78;;;33.33;;
64986;SDS011;51532;52.108;9.360;2022-09-23T05:37:50;9.85;;;7.40;;
64986;SDS011;51532;52.108;9.360;2022-09-23T05:40:37;30.08;;;21.50;;
64986;SDS011;51532;52.108;9.360;2022-09-23T05:43:25;47.70;;;33.38;;
64986;SDS011;51532;52.108;9.360;2022-09-23T05:46:14;10.20;;;6.22;;
64986;SDS011;51532;52.108;9.360;2022-09-23T05:49:03;7.88;;;4.40;;
64986;SDS011;51532;52.108;9.360;2022-09-23T05:51:51;6.43;;;4.60;;
64986;SDS011;51532;52.108;9.360;2022-09-23T05:54:38;4.80;;;3.97;;
64986;SDS011;51532;52.108;9.360;2022-09-23T05:57:26;6.25;;;3.70;;
64986;SDS011;51532;52.108;9.360;2022-09-23T06:00:15;5.85;;;3.80;;
64986;SDS011;51532;52.108;9.360;2022-09-23T06:03:03;5.65;;;3.95;;
64986;SDS011;51532;52.108;9.360;2022-09-23T06:05:53;5.40;;;3.65;;
64986;SDS011;51532;52.108;9.360;2022-09-23T06:08:41;5.90;;;3.53;;
64986;SDS011;51532;52.108;9.360;2022-09-23T06:11:28;5.97;;;3.40;;
64986;SDS011;51532;52.108;9.360;2022-09-23T06:14:16;4.85;;;3.47;;
64986;SDS011;51532;52.108;9.360;2022-09-23T06:17:04;3.92;;;3.50;;
64986;SDS011;51532;52.108;9.360;2022-09-23T06:19:51;6.65;;;3.88;;
64986;SDS011;51532;52.108;9.360;2022-09-23T06:22:39;5.30;;;4.00;;
64986;SDS011;51532;52.108;9.360;2022-09-23T06:25:27;4.47;;;3.78;;
64986;SDS011;51532;52.108;9.360;2022-09-23T06:28:15;6.28;;;4.15;;
64986;SDS011;51532;52.108;9.360;2022-09-23T06:31:03;5.18;;;3.88;;
64986;SDS011;51532;52.108;9.360;2022-09-23T06:33:58;6.20;;;4.07;;
64986;SDS011;51532;52.108;9.360;2022-09-23T06:36:58;6.38;;;4.18;;
64986;SDS011;51532;52.108;9.360;2022-09-23T06:39:57;5.43;;;3.88;;
64986;SDS011;51532;52.108;9.360;2022-09-23T06:42:45;6.78;;;4.32;;
64986;SDS011;51532;52.108;9.360;2022-09-23T06:45:37;4.95;;;4.07;;
64986;SDS011;51532;52.108;9.360;2022-09-23T06:48:25;6.53;;;4.70;;
64986;SDS011;51532;52.108;9.360;2022-09-23T06:51:14;5.38;;;4.72;;
64986;SDS011;51532;52.108;9.360;2022-09-23T06:54:04;5.38;;;4.55;;
64986;SDS011;51532;52.108;9.360;2022-09-23T06:56:52;4.60;;;3.90;;
64986;SDS011;51532;52.108;9.360;2022-09-23T06:59:40;4.97;;;4.22;;
64986;SDS011;51532;52.108;9.360;2022-09-23T07:02:27;5.90;;;4.22;;
64986;SDS011;51532;52.108;9.360;2022-09-23T07:05:15;4.78;;;4.30;;
64986;SDS011;51532;52.108;9.360;2022-09-23T07:08:05;6.80;;;4.63;;
64986;SDS011;51532;52.108;9.360;2022-09-23T07:10:55;7.97;;;4.30;;
64986;SDS011;51532;52.108;9.360;2022-09-23T07:13:44;7.05;;;4.38;;
64986;SDS011;51532;52.108;9.360;2022-09-23T07:16:31;6.65;;;4.10;;
64986;SDS011;51532;52.108;9.360;2022-09-23T07:19:19;6.05;;;4.38;;
64986;SDS011;51532;52.108;9.360;2022-09-23T07:22:06;6.80;;;4.10;;
64986;SDS011;51532;52.108;9.360;2022-09-23T07:24:53;7.10;;;4.38;;
64986;SDS011;51532;52.108;9.360;2022-09-23T07:27:41;6.82;;;3.97;;
64986;SDS011;51532;52.108;9.360;2022-09-23T07:30:28;8.55;;;4.15;;
64986;SDS011;51532;52.108;9.360;2022-09-23T07:33:16;6.65;;;3.95;;
64986;SDS011;51532;52.108;9.360;2022-09-23T07:36:18;6.20;;;3.90;;
64986;SDS011;51532;52.108;9.360;2022-09-23T07:39:06;5.10;;;4.07;;
64986;SDS011;51532;52.108;9.360;2022-09-23T07:41:55;5.47;;;4.00;;
64986;SDS011;51532;52.108;9.360;2022-09-23T07:44:42;7.10;;;3.58;;
64986;SDS011;51532;52.108;9.360;2022-09-23T07:47:33;4.10;;;3.25;;
64986;SDS011;51532;52.108;9.360;2022-09-23T07:50:20;7.35;;;3.35;;
64986;SDS011;51532;52.108;9.360;2022-09-23T07:53:08;6.03;;;3.88;;
64986;SDS011;51532;52.108;9.360;2022-09-23T07:55:55;5.68;;;3.40;;
64986;SDS011;51532;52.108;9.360;2022-09-23T07:58:43;4.10;;;3.10;;
64986;SDS011;51532;52.108;9.360;2022-09-23T08:01:34;4.35;;;3.15;;
64986;SDS011;51532;52.108;9.360;2022-09-23T08:04:25;4.45;;;2.63;;
64986;SDS011;51532;52.108;9.360;2022-09-23T08:07:14;4.70;;;2.45;;
64986;SDS011;51532;52.108;9.360;2022-09-23T08:10:02;4.68;;;3.08;;
64986;SDS011;51532;52.108;9.360;2022-09-23T08:12:49;4.13;;;2.70;;
64986;SDS011;51532;52.108;9.360;2022-09-23T08:15:37;5.43;;;2.70;;
64986;SDS011;51532;52.108;9.360;2022-09-23T08:18:25;5.10;;;2.70;;
64986;SDS011;51532;52.108;9.360;2022-09-23T08:21:17;3.05;;;2.70;;
64986;SDS011;51532;52.108;9.360;2022-09-23T08:24:06;3.55;;;3.25;;
64986;SDS011;51532;52.108;9.360;2022-09-23T08:26:56;7.40;;;3.05;;
64986;SDS011;51532;52.108;9.360;2022-09-23T08:29:44;5.18;;;3.20;;
64986;SDS011;51532;52.108;9.360;2022-09-23T08:32:32;2.97;;;2.67;;
64986;SDS011;51532;52.108;9.360;2022-09-23T08:35:19;3.22;;;2.50;;
64986;SDS011;51532;52.108;9.360;2022-09-23T08:38:07;5.60;;;2.83;;
64986;SDS011;51532;52.108;9.360;2022-09-23T08:41:00;2.70;;;2.50;;
64986;SDS011;51532;52.108;9.360;2022-09-23T08:44:15;3.03;;;2.70;;
64986;SDS011;51532;52.108;9.360;2022-09-23T08:50:21;3.72;;;2.58;;
64986;SDS011;51532;52.108;9.360;2022-09-23T08:53:23;3.90;;;3.13;;
64986;SDS011;51532;52.108;9.360;2022-09-23T08:56:17;4.50;;;3.15;;
64986;SDS011;51532;52.108;9.360;2022-09-23T09:02:05;4.13;;;2.95;;
64986;SDS011;51532;52.108;9.360;2022-09-23T09:05:01;3.20;;;2.90;;
64986;SDS011;51532;52.108;9.360;2022-09-23T09:07:53;4.53;;;2.92;;
64986;SDS011;51532;52.108;9.360;2022-09-23T09:10:43;2.35;;;2.15;;
64986;SDS011;51532;52.108;9.360;2022-09-23T09:13:33;3.20;;;2.50;;
64986;SDS011;51532;52.108;9.360;2022-09-23T09:16:35;3.85;;;2.47;;
64986;SDS011;51532;52.108;9.360;2022-09-23T09:19:52;5.32;;;2.47;;
64986;SDS011;51532;52.108;9.360;2022-09-23T09:22:52;2.45;;;2.25;;
64986;SDS011;51532;52.108;9.360;2022-09-23T09:25:56;4.95;;;2.60;;
64986;SDS011;51532;52.108;9.360;2022-09-23T09:32:11;2.50;;;2.30;;
64986;SDS011;51532;52.108;9.360;2022-09-23T09:35:10;2.67;;;2.40;;
64986;SDS011;51532;52.108;9.360;2022-09-23T09:38:12;3.35;;;2.60;;
64986;SDS011;51532;52.108;9.360;2022-09-23T09:41:01;2.78;;;2.03;;
64986;SDS011;51532;52.108;9.360;2022-09-23T09:43:58;4.65;;;2.65;;
64986;SDS011;51532;52.108;9.360;2022-09-23T09:47:02;2.83;;;2.60;;
64986;SDS011;51532;52.108;9.360;2022-09-23T09:53:30;3.50;;;2.55;;
64986;SDS011;51532;52.108;9.360;2022-09-23T09:56:23;3.80;;;2.90;;
64986;SDS011;51532;52.108;9.360;2022-09-23T09:59:18;3.83;;;2.22;;
64986;SDS011;51532;52.108;9.360;2022-09-23T10:02:25;3.30;;;2.30;;
64986;SDS011;51532;52.108;9.360;2022-09-23T10:05:22;2.75;;;2.20;;
64986;SDS011;51532;52.108;9.360;2022-09-23T10:11:12;2.25;;;2.10;;
64986;SDS011;51532;52.108;9.360;2022-09-23T10:14:10;4.07;;;2.17;;
64986;SDS011;51532;52.108;9.360;2022-09-23T10:17:03;3.20;;;2.05;;
64986;SDS011;51532;52.108;9.360;2022-09-23T10:19:56;2.17;;;2.05;;
64986;SDS011;51532;52.108;9.360;2022-09-23T10:22:52;4.68;;;4.13;;
64986;SDS011;51532;52.108;9.360;2022-09-23T10:25:42;3.78;;;2.90;;
64986;SDS011;51532;52.108;9.360;2022-09-23T10:28:47;3.70;;;3.30;;
64986;SDS011;51532;52.108;9.360;2022-09-23T10:31:41;3.10;;;2.80;;
64986;SDS011;51532;52.108;9.360;2022-09-23T10:34:29;2.83;;;1.90;;
64986;SDS011;51532;52.108;9.360;2022-09-23T10:37:24;2.25;;;2.05;;
64986;SDS011;51532;52.108;9.360;2022-09-23T10:40:18;3.63;;;1.75;;
64986;SDS011;51532;52.108;9.360;2022-09-23T10:47:12;2.20;;;2.00;;
64986;SDS011;51532;52.108;9.360;2022-09-23T10:50:19;3.20;;;2.13;;
64986;SDS011;51532;52.108;9.360;2022-09-23T10:53:30;2.20;;;2.00;;
64986;SDS011;51532;52.108;9.360;2022-09-23T10:56:38;4.15;;;2.10;;
64986;SDS011;51532;52.108;9.360;2022-09-23T10:59:32;2.55;;;2.20;;
64986;SDS011;51532;52.108;9.360;2022-09-23T11:02:38;2.58;;;2.30;;
64986;SDS011;51532;52.108;9.360;2022-09-23T11:06:10;2.10;;;1.90;;
64986;SDS011;51532;52.108;9.360;2022-09-23T11:15:43;2.15;;;1.95;;
64986;SDS011;51532;52.108;9.360;2022-09-23T11:18:49;2.20;;;2.00;;
64986;SDS011;51532;52.108;9.360;2022-09-23T11:22:01;3.65;;;2.90;;
64986;SDS011;51532;52.108;9.360;2022-09-23T11:31:13;2.70;;;2.00;;
64986;SDS011;51532;52.108;9.360;2022-09-23T11:40:02;2.55;;;2.35;;
64986;SDS011;51532;52.108;9.360;2022-09-23T11:45:46;2.63;;;2.33;;
64986;SDS011;51532;52.108;9.360;2022-09-23T11:48:52;2.75;;;2.05;;
64986;SDS011;51532;52.108;9.360;2022-09-23T11:55:11;2.42;;;2.22;;
64986;SDS011;51532;52.108;9.360;2022-09-23T11:58:18;2.45;;;2.00;;
64986;SDS011;51532;52.108;9.360;2022-09-23T12:01:45;3.63;;;2.25;;
64986;SDS011;51532;52.108;9.360;2022-09-23T12:04:35;3.20;;;1.98;;
64986;SDS011;51532;52.108;9.360;2022-09-23T12:10:54;1.90;;;1.60;;
64986;SDS011;51532;52.108;9.360;2022-09-23T12:20:22;3.97;;;3.10;;
64986;SDS011;51532;52.108;9.360;2022-09-23T12:23:53;2.30;;;2.10;;
64986;SDS011;51532;52.108;9.360;2022-09-23T12:26:51;2.25;;;2.05;;
64986;SDS011;51532;52.108;9.360;2022-09-23T12:29:50;2.38;;;2.17;;
64986;SDS011;51532;52.108;9.360;2022-09-23T12:32:44;2.67;;;2.03;;
64986;SDS011;51532;52.108;9.360;2022-09-23T12:35:34;2.20;;;1.90;;
64986;SDS011;51532;52.108;9.360;2022-09-23T12:38:31;2.53;;;2.33;;
64986;SDS011;51532;52.108;9.360;2022-09-23T12:41:42;5.13;;;2.10;;
64986;SDS011;51532;52.108;9.360;2022-09-23T12:44:38;2.63;;;2.00;;
64986;SDS011;51532;52.108;9.360;2022-09-23T12:47:29;4.40;;;3.88;;
64986;SDS011;51532;52.108;9.360;2022-09-23T13:02:22;3.78;;;2.30;;
64986;SDS011;51532;52.108;9.360;2022-09-23T13:05:19;3.78;;;2.60;;
64986;SDS011;51532;52.108;9.360;2022-09-23T13:08:27;2.58;;;2.20;;
64986;SDS011;51532;52.108;9.360;2022-09-23T13:11:20;2.67;;;1.85;;
64986;SDS011;51532;52.108;9.360;2022-09-23T13:14:12;2.50;;;2.10;;
64986;SDS011;51532;52.108;9.360;2022-09-23T13:17:03;2.42;;;2.22;;
64986;SDS011;51532;52.108;9.360;2022-09-23T13:20:00;3.50;;;2.08;;
64986;SDS011;51532;52.108;9.360;2022-09-23T13:23:15;3.20;;;2.10;;
64986;SDS011;51532;52.108;9.360;2022-09-23T13:26:16;2.55;;;1.85;;
64986;SDS011;51532;52.108;9.360;2022-09-23T13:29:04;4.45;;;2.00;;
64986;SDS011;51532;52.108;9.360;2022-09-23T13:31:59;3.13;;;2.38;;
64986;SDS011;51532;52.108;9.360;2022-09-23T13:35:04;4.10;;;2.30;;
64986;SDS011;51532;52.108;9.360;2022-09-23T13:41:19;2.72;;;2.47;;
64986;SDS011;51532;52.108;9.360;2022-09-23T13:44:14;3.63;;;3.15;;
64986;SDS011;51532;52.108;9.360;2022-09-23T13:47:05;2.88;;;2.63;;
64986;SDS011;51532;52.108;9.360;2022-09-23T13:49:54;2.78;;;2.58;;
64986;SDS011;51532;52.108;9.360;2022-09-23T13:52:42;3.08;;;2.50;;
64986;SDS011;51532;52.108;9.360;2022-09-23T13:55:30;2.97;;;2.35;;
64986;SDS011;51532;52.108;9.360;2022-09-23T13:58:20;3.20;;;2.20;;
64986;SDS011;51532;52.108;9.360;2022-09-23T14:01:19;3.90;;;2.35;;
64986;SDS011;51532;52.108;9.360;2022-09-23T14:04:21;2.80;;;2.58;;
64986;SDS011;51532;52.108;9.360;2022-09-23T14:07:11;2.42;;;2.22;;
64986;SDS011;51532;52.108;9.360;2022-09-23T14:10:00;4.45;;;2.33;;
64986;SDS011;51532;52.108;9.360;2022-09-23T14:12:49;2.80;;;2.33;;
64986;SDS011;51532;52.108;9.360;2022-09-23T14:15:37;2.30;;;2.10;;
64986;SDS011;51532;52.108;9.360;2022-09-23T14:21:25;2.50;;;2.17;;
64986;SDS011;51532;52.108;9.360;2022-09-23T14:30:00;3.53;;;2.22;;
64986;SDS011;51532;52.108;9.360;2022-09-23T14:32:49;1.95;;;1.85;;
64986;SDS011;51532;52.108;9.360;2022-09-23T14:35:38;2.40;;;2.20;;
64986;SDS011;51532;52.108;9.360;2022-09-23T14:38:27;2.97;;;2.10;;
64986;SDS011;51532;52.108;9.360;2022-09-23T14:41:41;2.63;;;2.08;;
64986;SDS011;51532;52.108;9.360;2022-09-23T14:44:30;2.40;;;1.95;;
64986;SDS011;51532;52.108;9.360;2022-09-23T14:47:21;2.90;;;2.15;;
64986;SDS011;51532;52.108;9.360;2022-09-23T14:50:13;3.70;;;2.75;;
64986;SDS011;51532;52.108;9.360;2022-09-23T14:56:19;2.30;;;2.03;;
64986;SDS011;51532;52.108;9.360;2022-09-23T14:59:18;3.40;;;2.35;;
64986;SDS011;51532;52.108;9.360;2022-09-23T15:02:27;2.55;;;2.08;;
64986;SDS011;51532;52.108;9.360;2022-09-23T15:05:20;2.20;;;2.00;;
64986;SDS011;51532;52.108;9.360;2022-09-23T15:08:16;2.92;;;2.13;;
64986;SDS011;51532;52.108;9.360;2022-09-23T15:11:06;3.00;;;2.78;;
64986;SDS011;51532;52.108;9.360;2022-09-23T15:13:54;2.10;;;1.90;;
64986;SDS011;51532;52.108;9.360;2022-09-23T15:16:41;2.05;;;1.80;;
64986;SDS011;51532;52.108;9.360;2022-09-23T15:19:29;2.40;;;2.10;;
64986;SDS011;51532;52.108;9.360;2022-09-23T15:22:17;3.03;;;2.30;;
64986;SDS011;51532;52.108;9.360;2022-09-23T15:25:10;3.17;;;2.50;;
64986;SDS011;51532;52.108;9.360;2022-09-23T15:30:51;2.55;;;2.35;;
64986;SDS011;51532;52.108;9.360;2022-09-23T15:33:38;2.33;;;2.13;;
64986;SDS011;51532;52.108;9.360;2022-09-23T15:36:26;3.25;;;2.17;;
64986;SDS011;51532;52.108;9.360;2022-09-23T15:39:14;3.17;;;2.67;;
64986;SDS011;51532;52.108;9.360;2022-09-23T15:42:01;3.42;;;2.53;;
64986;SDS011;51532;52.108;9.360;2022-09-23T15:44:49;9.70;;;6.22;;
64986;SDS011;51532;52.108;9.360;2022-09-23T15:47:36;8.80;;;5.22;;
64986;SDS011;51532;52.108;9.360;2022-09-23T15:50:24;3.45;;;2.75;;
64986;SDS011;51532;52.108;9.360;2022-09-23T15:53:12;3.63;;;2.60;;
64986;SDS011;51532;52.108;9.360;2022-09-23T15:56:01;7.40;;;5.00;;
64986;SDS011;51532;52.108;9.360;2022-09-23T15:58:48;4.45;;;3.22;;
64986;SDS011;51532;52.108;9.360;2022-09-23T16:01:36;3.78;;;3.38;;
64986;SDS011;51532;52.108;9.360;2022-09-23T16:04:23;10.18;;;5.60;;
64986;SDS011;51532;52.108;9.360;2022-09-23T16:07:11;9.00;;;5.28;;
64986;SDS011;51532;52.108;9.360;2022-09-23T16:10:01;4.63;;;3.20;;
64986;SDS011;51532;52.108;9.360;2022-09-23T16:12:49;22.80;;;14.00;;
64986;SDS011;51532;52.108;9.360;2022-09-23T16:15:38;3.97;;;3.40;;
64986;SDS011;51532;52.108;9.360;2022-09-23T16:18:26;5.78;;;4.00;;
64986;SDS011;51532;52.108;9.360;2022-09-23T16:21:15;6.45;;;4.78;;
64986;SDS011;51532;52.108;9.360;2022-09-23T16:24:08;7.05;;;4.97;;
64986;SDS011;51532;52.108;9.360;2022-09-23T16:27:00;5.15;;;4.30;;
64986;SDS011;51532;52.108;9.360;2022-09-23T16:29:51;6.18;;;3.72;;
64986;SDS011;51532;52.108;9.360;2022-09-23T16:32:39;7.57;;;4.43;;
64986;SDS011;51532;52.108;9.360;2022-09-23T16:35:27;5.65;;;4.22;;
64986;SDS011;51532;52.108;9.360;2022-09-23T16:38:16;4.18;;;3.35;;
64986;SDS011;51532;52.108;9.360;2022-09-23T16:41:04;4.53;;;4.13;;
64986;SDS011;51532;52.108;9.360;2022-09-23T16:43:52;10.10;;;6.00;;
64986;SDS011;51532;52.108;9.360;2022-09-23T16:46:40;15.73;;;7.97;;
64986;SDS011;51532;52.108;9.360;2022-09-23T16:49:28;6.07;;;4.55;;
64986;SDS011;51532;52.108;9.360;2022-09-23T16:52:15;5.90;;;3.85;;
64986;SDS011;51532;52.108;9.360;2022-09-23T16:55:03;7.97;;;4.70;;
64986;SDS011;51532;52.108;9.360;2022-09-23T16:57:51;4.93;;;4.43;;
64986;SDS011;51532;52.108;9.360;2022-09-23T17:00:39;9.57;;;5.20;;
64986;SDS011;51532;52.108;9.360;2022-09-23T17:03:45;10.40;;;6.97;;
64986;SDS011;51532;52.108;9.360;2022-09-23T17:06:33;14.52;;;9.52;;
64986;SDS011;51532;52.108;9.360;2022-09-23T17:09:24;19.13;;;11.48;;
64986;SDS011;51532;52.108;9.360;2022-09-23T17:12:17;20.38;;;11.93;;
64986;SDS011;51532;52.108;9.360;2022-09-23T17:15:11;26.40;;;16.38;;
64986;SDS011;51532;52.108;9.360;2022-09-23T17:17:58;20.23;;;11.80;;
64986;SDS011;51532;52.108;9.360;2022-09-23T17:20:56;27.13;;;14.43;;
64986;SDS011;51532;52.108;9.360;2022-09-23T17:23:47;15.70;;;10.88;;
64986;SDS011;51532;52.108;9.360;2022-09-23T17:26:34;22.77;;;14.32;;
64986;SDS011;51532;52.108;9.360;2022-09-23T17:29:21;35.45;;;19.33;;
64986;SDS011;51532;52.108;9.360;2022-09-23T17:32:12;35.42;;;21.08;;
64986;SDS011;51532;52.108;9.360;2022-09-23T17:34:59;35.10;;;21.35;;
64986;SDS011;51532;52.108;9.360;2022-09-23T17:37:50;46.05;;;29.23;;
64986;SDS011;51532;52.108;9.360;2022-09-23T17:40:37;37.97;;;24.35;;
64986;SDS011;51532;52.108;9.360;2022-09-23T17:43:26;37.10;;;24.67;;
64986;SDS011;51532;52.108;9.360;2022-09-23T17:46:14;30.83;;;22.02;;
64986;SDS011;51532;52.108;9.360;2022-09-23T17:49:04;26.75;;;19.38;;
64986;SDS011;51532;52.108;9.360;2022-09-23T17:51:53;20.67;;;16.70;;
64986;SDS011;51532;52.108;9.360;2022-09-23T17:54:42;19.83;;;15.23;;
64986;SDS011;51532;52.108;9.360;2022-09-23T17:57:30;16.98;;;14.05;;
64986;SDS011;51532;52.108;9.360;2022-09-23T18:00:17;16.92;;;13.60;;
64986;SDS011;51532;52.108;9.360;2022-09-23T18:03:05;14.93;;;12.98;;
64986;SDS011;51532;52.108;9.360;2022-09-23T18:05:52;14.50;;;13.00;;
64986;SDS011;51532;52.108;9.360;2022-09-23T18:08:41;13.63;;;12.23;;
64986;SDS011;51532;52.108;9.360;2022-09-23T18:11:33;14.45;;;13.02;;
64986;SDS011;51532;52.108;9.360;2022-09-23T18:14:22;14.05;;;12.35;;
64986;SDS011;51532;52.108;9.360;2022-09-23T18:17:10;12.77;;;11.48;;
64986;SDS011;51532;52.108;9.360;2022-09-23T18:19:57;12.90;;;10.82;;
64986;SDS011;51532;52.108;9.360;2022-09-23T18:22:45;11.63;;;10.10;;
64986;SDS011;51532;52.108;9.360;2022-09-23T18:25:32;12.80;;;10.25;;
64986;SDS011;51532;52.108;9.360;2022-09-23T18:28:27;11.65;;;9.45;;
64986;SDS011;51532;52.108;9.360;2022-09-23T18:31:20;10.05;;;8.02;;
64986;SDS011;51532;52.108;9.360;2022-09-23T18:34:11;10.75;;;8.73;;
64986;SDS011;51532;52.108;9.360;2022-09-23T18:37:00;9.20;;;7.72;;
64986;SDS011;51532;52.108;9.360;2022-09-23T18:39:47;10.40;;;7.38;;
64986;SDS011;51532;52.108;9.360;2022-09-23T18:42:35;7.97;;;7.18;;
64986;SDS011;51532;52.108;9.360;2022-09-23T18:45:25;8.80;;;6.88;;
64986;SDS011;51532;52.108;9.360;2022-09-23T18:48:13;9.40;;;7.10;;
64986;SDS011;51532;52.108;9.360;2022-09-23T18:51:20;8.13;;;6.22;;
64986;SDS011;51532;52.108;9.360;2022-09-23T18:54:10;7.68;;;6.00;;
64986;SDS011;51532;52.108;9.360;2022-09-23T18:56:58;7.03;;;6.32;;
64986;SDS011;51532;52.108;9.360;2022-09-23T18:59:45;7.22;;;6.40;;
64986;SDS011;51532;52.108;9.360;2022-09-23T19:02:33;8.07;;;7.25;;
64986;SDS011;51532;52.108;9.360;2022-09-23T19:05:20;7.68;;;6.90;;
64986;SDS011;51532;52.108;9.360;2022-09-23T19:08:08;9.13;;;6.60;;